Portada
METAR-TAF:

METAR-TAF

Aeropuertos :

Leh, India

latitud: 34-08-09N, longitud: 077-32-47E, altitud: 3256 m

METAR: falta

Hora: 23:30 (18:00 UTC)

Pronóstico

El informe se hizo hace 8 horas y 30 minutos, a las 09:30 UTC
Pronóstico válido del 06 a las 18 UTC al 07 a las 12 UTC
Viento 20 kt del oeste-noroeste con ráfagas de 30 kt
Visibilidad: 6000 m
Escasas nubes a una altura de 7000 ft
Cielo nuboso a una altura de 12000 ft
Escasas nubes a una altura de 6000 ft
Nubes dispersas a una altura de 10000 ft
Cielo nuboso a una altura de 12000 ft
Escasas nubes a una altura de 6000 ft, Cumulus congestus.
Nubes dispersas a una altura de 10000 ft
Cielo nuboso a una altura de 12000 ft
lluvia ligera

TAF: VILH 060930Z 0618/0712 29005KT 6000 FEW070 BKN120 BECMG0706/0710 28010KT 6000 FEW060 SCT100 BKN120 TEMPO0708/0712 29020G30KT -RA FEW060TCU SCT100 BKN120

Observaciones y pronósticos meteorológicos de más de 4000 aeropuertos (mensajes METAR y TAF).

Los puntos amarillos y rojos representan las estaciones disponibles.

Ponga el ratón en el punto deseado para ver el nombre de la estación.

Haga clic para ver las observaciones y los pronósticos meteorológicos.

Para cambiar el mapa : haga clic en los botones verdes con una cruz de color negro para hacer un zoom, en el botón verde con un guión para alejar o en las flechas verdes para mapas adyacentes.


METAR-TAF: